createdAt,value
2018-03-08T00:00:51.495Z,6.80
2018-03-08T00:03:17.895Z,6.80
2018-03-08T00:05:45.112Z,6.70
2018-03-08T00:08:11.638Z,6.70
2018-03-08T00:10:38.042Z,6.70
2018-03-08T00:13:04.478Z,6.70
2018-03-08T00:15:30.876Z,6.70
2018-03-08T00:17:57.292Z,6.70
2018-03-08T00:20:24.467Z,6.60
2018-03-08T00:22:50.857Z,6.60
2018-03-08T00:25:17.233Z,6.60
2018-03-08T00:27:43.639Z,6.60
2018-03-08T00:30:10.093Z,6.50
2018-03-08T00:32:36.582Z,6.50
2018-03-08T00:35:03.033Z,6.40
2018-03-08T00:37:29.394Z,6.40
2018-03-08T00:39:55.772Z,6.40
2018-03-08T00:42:22.215Z,6.40
2018-03-08T00:44:48.611Z,6.40
2018-03-08T00:47:15.072Z,6.40
2018-03-08T00:49:42.995Z,6.30
2018-03-08T00:52:09.483Z,6.30
2018-03-08T00:54:35.882Z,6.30
2018-03-08T00:57:02.388Z,6.30
2018-03-08T00:59:28.956Z,6.30
2018-03-08T01:01:55.362Z,6.20
2018-03-08T01:04:21.787Z,6.30
2018-03-08T01:06:48.199Z,6.30
2018-03-08T01:09:15.325Z,6.20
2018-03-08T01:11:41.770Z,6.20
2018-03-08T01:14:08.200Z,6.30
2018-03-08T01:16:34.731Z,6.30
2018-03-08T01:19:01.172Z,6.30
2018-03-08T01:21:28.486Z,6.20
2018-03-08T01:23:54.898Z,6.20
2018-03-08T01:26:21.462Z,6.30
2018-03-08T01:28:47.881Z,6.30
2018-03-08T01:31:14.455Z,6.10
2018-03-08T01:33:41.704Z,6.00
2018-03-08T01:36:21.936Z,5.90
2018-03-08T01:38:48.487Z,5.90
2018-03-08T01:41:15.016Z,5.80
2018-03-08T01:43:41.470Z,5.60
2018-03-08T01:46:07.906Z,5.60
2018-03-08T01:48:34.290Z,5.40
2018-03-08T01:51:00.711Z,5.30
2018-03-08T01:53:27.166Z,5.30
2018-03-08T01:55:53.550Z,5.10
2018-03-08T01:58:20.782Z,5.00
2018-03-08T02:00:47.230Z,5.00
2018-03-08T02:03:15.149Z,4.80
2018-03-08T02:05:41.592Z,4.80
2018-03-08T02:08:08.153Z,4.70
2018-03-08T02:10:34.555Z,4.70
2018-03-08T02:13:00.973Z,4.70
2018-03-08T02:15:27.418Z,4.70
2018-03-08T02:17:53.831Z,4.60
2018-03-08T02:20:20.262Z,4.60
2018-03-08T02:22:46.750Z,4.60
2018-03-08T02:25:13.233Z,4.60
2018-03-08T02:27:39.633Z,4.60
2018-03-08T02:30:06.810Z,4.70
2018-03-08T02:32:34.098Z,4.60
2018-03-08T02:35:00.519Z,4.60
2018-03-08T02:37:27.095Z,4.60
2018-03-08T02:39:54.301Z,4.50
2018-03-08T02:42:20.805Z,4.50
2018-03-08T02:44:47.255Z,4.40
2018-03-08T02:47:13.662Z,4.40
2018-03-08T02:49:40.858Z,4.30
2018-03-08T02:52:07.344Z,4.20
2018-03-08T02:54:34.542Z,4.20
2018-03-08T02:57:00.938Z,4.30
2018-03-08T02:59:28.082Z,4.20
2018-03-08T03:01:55.220Z,4.10
2018-03-08T03:04:22.346Z,4.10
2018-03-08T03:06:48.898Z,4.10
2018-03-08T03:09:16.042Z,4.00
2018-03-08T03:11:42.579Z,4.00
2018-03-08T03:14:09.115Z,4.10
2018-03-08T03:16:35.554Z,4.10
2018-03-08T03:19:01.939Z,4.00
2018-03-08T03:21:28.350Z,4.00
2018-03-08T03:23:54.819Z,4.00
2018-03-08T03:26:21.228Z,3.90
2018-03-08T03:28:47.779Z,3.90
2018-03-08T03:31:14.342Z,3.80
2018-03-08T03:33:41.089Z,3.80
2018-03-08T03:36:07.701Z,3.80
2018-03-08T03:38:34.093Z,3.70
2018-03-08T03:41:00.525Z,3.70
2018-03-08T03:43:27.729Z,3.70
2018-03-08T03:45:54.252Z,3.70
2018-03-08T03:48:20.784Z,3.70
2018-03-08T03:50:47.247Z,3.70
2018-03-08T03:53:13.711Z,3.70
2018-03-08T03:55:40.843Z,3.60
2018-03-08T03:58:08.044Z,3.50
2018-03-08T04:00:34.500Z,3.50
2018-03-08T04:03:00.867Z,3.40
2018-03-08T04:05:28.055Z,3.60
2018-03-08T04:07:54.819Z,3.50
2018-03-08T04:10:21.285Z,3.60
2018-03-08T04:12:48.531Z,3.60
2018-03-08T04:15:14.978Z,3.60
2018-03-08T04:17:42.104Z,3.60
2018-03-08T04:20:09.278Z,3.50
2018-03-08T04:22:36.410Z,3.50
2018-03-08T04:25:02.850Z,3.40
2018-03-08T04:27:30.062Z,3.50
2018-03-08T04:29:56.458Z,3.50
2018-03-08T04:32:23.671Z,3.50
2018-03-08T04:34:50.257Z,3.50
2018-03-08T04:37:16.809Z,3.50
2018-03-08T04:39:44.303Z,3.40
2018-03-08T04:42:10.939Z,3.40
2018-03-08T04:44:37.560Z,3.30
2018-03-08T04:47:04.209Z,3.30
2018-03-08T04:49:30.812Z,3.30
2018-03-08T04:51:58.314Z,3.30
2018-03-08T04:54:24.894Z,3.30
2018-03-08T04:56:51.586Z,3.40
2018-03-08T04:59:18.205Z,3.30
2018-03-08T05:01:44.944Z,3.40
2018-03-08T05:04:11.562Z,3.40
2018-03-08T05:06:38.898Z,3.30
2018-03-08T05:09:05.478Z,3.30
2018-03-08T05:11:32.231Z,3.30
2018-03-08T05:13:58.949Z,3.20
2018-03-08T05:16:25.590Z,3.40
2018-03-08T05:18:52.329Z,3.50
2018-03-08T05:21:18.936Z,3.60
2018-03-08T05:23:45.578Z,3.70
2018-03-08T05:26:12.185Z,3.80
2018-03-08T05:28:38.796Z,3.90
2018-03-08T05:31:05.383Z,4.00
2018-03-08T05:33:32.008Z,4.10
2018-03-08T05:35:58.543Z,4.20
2018-03-08T05:38:25.149Z,4.20
2018-03-08T05:40:52.601Z,4.40
2018-03-08T05:43:20.376Z,4.50
2018-03-08T05:45:47.105Z,4.50
2018-03-08T05:48:13.761Z,4.60
2018-03-08T05:50:40.185Z,4.70
2018-03-08T05:53:06.771Z,4.80
2018-03-08T05:55:33.424Z,4.80
2018-03-08T05:58:00.016Z,5.00
2018-03-08T06:00:26.591Z,5.10
2018-03-08T06:02:53.188Z,5.10
2018-03-08T06:05:20.083Z,5.10
2018-03-08T06:07:46.743Z,5.20
2018-03-08T06:10:13.378Z,5.30
2018-03-08T06:12:39.955Z,5.30
2018-03-08T06:15:08.090Z,5.40
2018-03-08T06:17:34.694Z,5.40
2018-03-08T06:20:01.316Z,5.40
2018-03-08T06:22:28.693Z,5.50
2018-03-08T06:24:55.358Z,5.50
2018-03-08T06:27:21.766Z,5.50
2018-03-08T06:29:48.328Z,5.60
2018-03-08T06:32:14.837Z,5.60
2018-03-08T06:34:41.398Z,5.60
2018-03-08T06:37:07.833Z,5.70
2018-03-08T06:39:34.365Z,5.70
2018-03-08T06:42:00.765Z,5.70
2018-03-08T06:44:27.221Z,5.70
2018-03-08T06:46:53.711Z,5.70
2018-03-08T06:49:20.277Z,5.70
2018-03-08T06:51:46.720Z,5.80
2018-03-08T06:54:13.188Z,5.90
2018-03-08T06:56:39.626Z,6.00
2018-03-08T06:59:06.757Z,6.00
2018-03-08T07:01:33.159Z,6.00
2018-03-08T07:03:59.617Z,6.10
2018-03-08T07:06:26.052Z,6.10
2018-03-08T07:08:53.381Z,6.10
2018-03-08T07:11:19.767Z,6.10
2018-03-08T07:13:46.386Z,6.20
2018-03-08T07:16:12.994Z,6.20
2018-03-08T07:18:39.568Z,6.30
2018-03-08T07:21:06.118Z,6.40
2018-03-08T07:23:32.822Z,6.40
2018-03-08T07:25:59.270Z,6.40
2018-03-08T07:28:26.458Z,6.40
2018-03-08T07:30:53.600Z,6.50
2018-03-08T07:33:20.013Z,6.40
2018-03-08T07:35:46.525Z,6.50
2018-03-08T07:38:13.059Z,6.50
2018-03-08T07:40:39.497Z,6.50
2018-03-08T07:43:05.952Z,6.60
2018-03-08T07:45:33.182Z,6.90
2018-03-08T07:48:00.324Z,7.10
2018-03-08T07:50:26.704Z,7.10
2018-03-08T07:52:53.294Z,7.20
2018-03-08T07:55:19.688Z,7.30
2018-03-08T07:57:46.090Z,7.60
2018-03-08T08:00:13.310Z,7.70
2018-03-08T08:02:39.717Z,7.70
2018-03-08T08:05:18.537Z,7.70
2018-03-08T08:07:57.262Z,7.80
2018-03-08T08:10:23.927Z,7.90
2018-03-08T08:12:50.410Z,8.00
2018-03-08T08:15:16.798Z,8.00
2018-03-08T08:17:43.273Z,8.00
2018-03-08T08:20:09.763Z,8.10
2018-03-08T08:22:36.149Z,8.20
2018-03-08T08:25:02.627Z,8.20
2018-03-08T08:27:29.029Z,8.10
2018-03-08T08:29:55.443Z,8.00
2018-03-08T08:32:21.879Z,8.00
2018-03-08T08:34:48.311Z,8.10
2018-03-08T08:37:15.462Z,8.40
2018-03-08T08:39:42.044Z,8.40
2018-03-08T08:42:08.604Z,8.60
2018-03-08T08:44:35.062Z,8.60
2018-03-08T08:47:01.623Z,8.70
2018-03-08T08:49:28.083Z,9.10
2018-03-08T08:51:54.617Z,9.60
2018-03-08T08:54:21.147Z,9.90
2018-03-08T08:56:47.620Z,9.90
2018-03-08T08:59:14.121Z,10.00
2018-03-08T09:01:40.629Z,10.00
2018-03-08T09:04:07.168Z,10.00
2018-03-08T09:06:33.586Z,9.90
2018-03-08T09:09:00.076Z,9.90
2018-03-08T09:11:27.211Z,10.10
2018-03-08T09:13:53.743Z,10.10
2018-03-08T09:16:20.357Z,10.20
2018-03-08T09:18:46.775Z,10.00
2018-03-08T09:21:13.191Z,9.90
2018-03-08T09:23:39.757Z,9.80
2018-03-08T09:26:06.318Z,9.80
2018-03-08T09:28:32.827Z,10.00
2018-03-08T09:30:59.388Z,10.10
2018-03-08T09:33:25.799Z,10.30
2018-03-08T09:35:52.202Z,10.20
2018-03-08T09:38:18.667Z,10.30
2018-03-08T09:40:45.085Z,10.30
2018-03-08T09:43:11.529Z,10.30
2018-03-08T09:45:37.943Z,10.30
2018-03-08T09:48:04.391Z,10.40
2018-03-08T09:50:30.851Z,10.40
2018-03-08T09:52:57.304Z,10.40
2018-03-08T09:55:24.622Z,10.90
2018-03-08T09:57:51.818Z,11.00
2018-03-08T10:00:18.301Z,11.00
2018-03-08T10:02:44.689Z,11.10
2018-03-08T10:05:11.114Z,11.20
2018-03-08T10:07:38.279Z,11.30
2018-03-08T10:10:05.288Z,11.20
2018-03-08T10:12:32.498Z,11.10
2018-03-08T10:14:58.931Z,11.00
2018-03-08T10:17:25.324Z,11.00
2018-03-08T10:19:51.837Z,11.00
2018-03-08T10:22:19.050Z,11.30
2018-03-08T10:24:45.488Z,11.30
2018-03-08T10:27:11.894Z,11.50
2018-03-08T10:29:38.356Z,11.60
2018-03-08T10:32:04.911Z,11.90
2018-03-08T10:34:31.340Z,12.10
2018-03-08T10:36:57.891Z,12.30
2018-03-08T10:41:52.477Z,11.80
2018-03-08T10:44:18.971Z,11.60
2018-03-08T10:46:45.388Z,11.40
2018-03-08T10:49:12.531Z,10.80
2018-03-08T10:51:39.150Z,10.80
2018-03-08T10:54:05.562Z,10.70
2018-03-08T10:56:31.941Z,10.70
2018-03-08T10:58:59.099Z,10.80
2018-03-08T11:01:25.546Z,10.80
2018-03-08T11:03:53.970Z,10.80
2018-03-08T11:06:24.180Z,10.70
2018-03-08T11:08:50.650Z,10.70
2018-03-08T11:11:17.100Z,10.80
2018-03-08T11:13:43.503Z,10.90
2018-03-08T11:16:16.874Z,11.10
2018-03-08T11:18:43.364Z,11.40
2018-03-08T11:21:09.795Z,11.60
2018-03-08T11:23:36.403Z,11.80
2018-03-08T11:26:02.911Z,12.00
2018-03-08T11:28:29.327Z,12.10
2018-03-08T11:30:55.801Z,12.10
2018-03-08T11:33:22.255Z,12.10
2018-03-08T11:35:48.692Z,12.40
2018-03-08T11:38:16.004Z,12.50
2018-03-08T11:40:42.453Z,12.50
2018-03-08T11:43:08.858Z,12.40
2018-03-08T11:45:35.240Z,12.20
2018-03-08T11:48:02.412Z,12.60
2018-03-08T11:50:29.532Z,12.90
2018-03-08T11:52:56.072Z,12.80
2018-03-08T11:55:22.547Z,13.20
2018-03-08T11:57:48.957Z,13.40
2018-03-08T12:00:15.373Z,13.60
2018-03-08T12:02:41.877Z,13.80
2018-03-08T12:05:08.386Z,13.70
2018-03-08T12:07:34.804Z,13.70
2018-03-08T12:10:01.284Z,13.60
2018-03-08T12:12:27.695Z,13.40
2018-03-08T12:14:54.116Z,13.10
2018-03-08T12:17:20.524Z,13.00
2018-03-08T12:19:46.927Z,12.90
2018-03-08T12:22:13.453Z,12.90
2018-03-08T12:24:39.984Z,13.00
2018-03-08T12:27:07.158Z,13.20
2018-03-08T12:29:34.298Z,13.20
2018-03-08T12:32:00.822Z,13.20
2018-03-08T12:34:27.206Z,13.30
2018-03-08T12:36:53.706Z,13.40
2018-03-08T12:39:21.043Z,13.60
2018-03-08T12:41:47.540Z,13.60
2018-03-08T12:44:13.955Z,13.50
2018-03-08T12:46:40.445Z,13.20
2018-03-08T12:49:08.412Z,12.90
2018-03-08T12:51:34.834Z,12.90
2018-03-08T12:54:01.277Z,12.70
2018-03-08T12:56:27.688Z,12.50
2018-03-08T12:58:54.119Z,12.30
2018-03-08T13:01:20.594Z,12.30
2018-03-08T13:03:47.026Z,12.40
2018-03-08T13:06:14.268Z,12.60
2018-03-08T13:08:40.683Z,12.60
2018-03-08T13:11:07.234Z,12.70
2018-03-08T13:13:33.745Z,13.10
2018-03-08T13:16:00.307Z,13.40
2018-03-08T13:18:26.707Z,13.60
2018-03-08T13:20:53.123Z,13.80
2018-03-08T13:23:19.670Z,13.80
2018-03-08T13:25:46.125Z,13.70
2018-03-08T13:28:12.693Z,13.50
2018-03-08T13:30:39.190Z,13.40
2018-03-08T13:33:06.460Z,13.20
2018-03-08T13:35:32.873Z,13.10
2018-03-08T13:37:59.316Z,13.10
2018-03-08T13:40:25.749Z,12.90
2018-03-08T13:42:53.643Z,12.60
2018-03-08T13:45:20.055Z,12.60
2018-03-08T13:47:46.484Z,12.50
2018-03-08T13:50:12.935Z,12.60
2018-03-08T13:52:40.119Z,13.10
2018-03-08T13:55:06.620Z,13.10
2018-03-08T13:57:33.784Z,13.30
2018-03-08T14:00:01.023Z,13.30
2018-03-08T14:02:27.494Z,13.30
2018-03-08T14:04:54.089Z,13.30
2018-03-08T14:07:21.427Z,13.20
2018-03-08T14:09:47.859Z,13.20
2018-03-08T14:12:14.364Z,13.20
2018-03-08T14:14:40.779Z,13.10
2018-03-08T14:17:07.266Z,12.90
2018-03-08T14:19:33.817Z,12.70
2018-03-08T14:22:00.342Z,12.70
2018-03-08T14:24:27.565Z,12.70
2018-03-08T14:26:54.113Z,12.70
2018-03-08T14:29:21.310Z,12.80
2018-03-08T14:31:47.841Z,12.80
2018-03-08T14:34:14.225Z,12.80
2018-03-08T14:36:40.662Z,12.70
2018-03-08T14:39:07.156Z,12.70
2018-03-08T14:41:33.631Z,12.70
2018-03-08T14:44:00.085Z,12.70
2018-03-08T14:46:26.466Z,12.80
2018-03-08T14:48:53.051Z,12.70
2018-03-08T14:51:20.328Z,12.40
2018-03-08T14:53:46.840Z,12.40
2018-03-08T14:56:14.004Z,12.30
2018-03-08T14:58:41.240Z,12.40
2018-03-08T15:01:08.406Z,12.50
2018-03-08T15:03:34.830Z,12.50
2018-03-08T15:06:01.368Z,12.70
2018-03-08T15:08:28.550Z,13.00
2018-03-08T15:10:54.979Z,13.00
2018-03-08T15:13:21.451Z,13.10
2018-03-08T15:15:47.945Z,13.10
2018-03-08T15:18:14.375Z,13.10
2018-03-08T15:20:41.673Z,12.80
2018-03-08T15:23:08.225Z,12.70
2018-03-08T15:25:34.644Z,12.60
2018-03-08T15:28:01.111Z,12.40
2018-03-08T15:30:28.240Z,12.30
2018-03-08T15:32:55.522Z,12.20
2018-03-08T15:35:22.126Z,12.20
2018-03-08T15:37:48.611Z,12.20
2018-03-08T15:40:15.008Z,12.10
2018-03-08T15:42:41.513Z,12.10
2018-03-08T15:45:07.938Z,12.00
2018-03-08T15:47:34.389Z,12.00
2018-03-08T15:50:00.846Z,12.00
2018-03-08T15:52:28.139Z,12.00
2018-03-08T15:54:54.582Z,11.90
2018-03-08T15:57:21.112Z,11.90
2018-03-08T15:59:47.557Z,11.90
2018-03-08T16:02:14.065Z,11.90
2018-03-08T16:04:40.770Z,11.90
2018-03-08T16:10:28.522Z,11.80
2018-03-08T16:12:55.158Z,11.80
2018-03-08T16:15:21.802Z,11.80
2018-03-08T16:17:48.997Z,11.70
2018-03-08T16:20:15.456Z,11.70
2018-03-08T16:22:42.039Z,11.70
2018-03-08T16:25:09.261Z,11.50
2018-03-08T16:27:35.668Z,11.50
2018-03-08T16:30:02.122Z,11.60
2018-03-08T16:32:28.702Z,11.50
2018-03-08T16:34:55.198Z,11.50
2018-03-08T16:37:21.723Z,11.50
2018-03-08T16:39:48.199Z,11.50
2018-03-08T16:42:15.361Z,11.50
2018-03-08T16:44:41.808Z,11.50
2018-03-08T16:47:08.304Z,11.50
2018-03-08T16:49:35.546Z,11.40
2018-03-08T16:52:02.751Z,11.30
2018-03-08T16:54:29.245Z,11.30
2018-03-08T16:56:56.470Z,11.30
2018-03-08T16:59:23.738Z,11.30
2018-03-08T17:01:50.404Z,11.30
2018-03-08T17:04:17.012Z,11.30
2018-03-08T17:06:43.531Z,11.30
2018-03-08T17:09:10.258Z,11.20
2018-03-08T17:11:36.734Z,11.20
2018-03-08T17:14:03.131Z,11.20
2018-03-08T17:16:29.794Z,11.20
2018-03-08T17:18:56.308Z,11.20
2018-03-08T17:21:22.722Z,11.20
2018-03-08T17:23:49.183Z,11.20
2018-03-08T17:26:15.658Z,11.20
2018-03-08T17:28:42.077Z,11.30
2018-03-08T17:31:09.317Z,11.20
2018-03-08T17:33:36.540Z,11.30
2018-03-08T17:36:03.012Z,11.30
2018-03-08T17:38:29.531Z,11.30
2018-03-08T17:40:55.988Z,11.30
2018-03-08T17:43:22.467Z,11.30
2018-03-08T17:45:49.120Z,11.40
2018-03-08T17:48:15.580Z,11.40
2018-03-08T17:50:42.192Z,11.40
2018-03-08T17:53:08.614Z,11.40
2018-03-08T17:55:35.019Z,11.40
2018-03-08T17:58:01.722Z,11.40
2018-03-08T18:00:28.452Z,11.40
2018-03-08T18:02:54.855Z,11.40
2018-03-08T18:05:21.270Z,11.50
2018-03-08T18:07:48.097Z,11.40
2018-03-08T18:10:14.553Z,11.40
2018-03-08T18:12:41.002Z,11.40
2018-03-08T18:15:07.564Z,11.30
2018-03-08T18:17:34.825Z,11.20
2018-03-08T18:20:02.044Z,11.10
2018-03-08T18:22:29.358Z,10.80
2018-03-08T18:24:55.889Z,10.80
2018-03-08T18:27:22.334Z,10.50
2018-03-08T18:29:48.935Z,10.10
2018-03-08T18:32:15.456Z,9.70
2018-03-08T18:34:41.891Z,9.40
2018-03-08T18:37:08.346Z,9.20
2018-03-08T18:39:34.816Z,9.00
2018-03-08T18:42:01.308Z,8.80
2018-03-08T18:44:29.026Z,8.30
2018-03-08T18:46:55.793Z,8.30
2018-03-08T18:49:22.333Z,8.10
2018-03-08T18:51:48.869Z,7.90
2018-03-08T18:54:16.129Z,7.70
2018-03-08T18:56:42.571Z,7.60
2018-03-08T18:59:09.771Z,7.60
2018-03-08T19:01:36.187Z,7.60
2018-03-08T19:04:02.619Z,7.50
2018-03-08T19:06:29.073Z,7.50
2018-03-08T19:08:55.499Z,7.50
2018-03-08T19:11:22.072Z,7.40
2018-03-08T19:13:49.314Z,7.30
2018-03-08T19:16:15.789Z,7.30
2018-03-08T19:18:42.978Z,7.30
2018-03-08T19:21:09.466Z,7.30
2018-03-08T19:23:35.931Z,7.30
2018-03-08T19:26:02.414Z,7.30
2018-03-08T19:28:28.868Z,7.30
2018-03-08T19:30:55.482Z,7.20
2018-03-08T19:33:21.951Z,7.20
2018-03-08T19:35:49.116Z,7.10
2018-03-08T19:38:15.514Z,7.10
2018-03-08T19:40:42.654Z,7.00
2018-03-08T19:43:09.827Z,6.90
2018-03-08T19:45:36.331Z,6.90
2018-03-08T19:48:02.827Z,7.00
2018-03-08T19:50:29.276Z,7.00
2018-03-08T19:52:55.894Z,7.00
2018-03-08T19:55:22.377Z,6.90
2018-03-08T19:57:49.579Z,6.80
2018-03-08T20:00:16.081Z,6.80
2018-03-08T20:02:49.661Z,6.80
2018-03-08T20:05:16.855Z,6.70
2018-03-08T20:07:43.269Z,6.70
2018-03-08T20:10:09.779Z,6.70
2018-03-08T20:12:37.067Z,6.60
2018-03-08T20:15:03.871Z,6.60
2018-03-08T20:17:30.411Z,6.60
2018-03-08T20:19:57.762Z,6.60
2018-03-08T20:22:25.214Z,6.70
2018-03-08T20:24:51.715Z,6.60
2018-03-08T20:27:18.224Z,6.60
2018-03-08T20:29:44.660Z,6.60
2018-03-08T20:32:11.168Z,6.60
2018-03-08T20:34:38.405Z,6.50
2018-03-08T20:37:05.620Z,6.50
2018-03-08T20:39:32.067Z,6.50
2018-03-08T20:41:58.515Z,6.40
2018-03-08T20:44:25.005Z,6.50
2018-03-08T20:46:51.705Z,6.50
2018-03-08T20:49:18.363Z,6.50
2018-03-08T20:51:44.951Z,6.40
2018-03-08T20:54:12.312Z,6.50
2018-03-08T20:56:39.536Z,6.40
2018-03-08T20:59:06.043Z,6.50
2018-03-08T21:01:32.653Z,6.40
2018-03-08T21:03:59.064Z,6.40
2018-03-08T21:06:25.568Z,6.40
2018-03-08T21:08:52.036Z,6.30
2018-03-08T21:11:18.505Z,6.30
2018-03-08T21:13:45.816Z,6.20
2018-03-08T21:16:12.295Z,6.20
2018-03-08T21:18:38.695Z,6.10
2018-03-08T21:21:05.156Z,6.20
2018-03-08T21:23:32.395Z,6.10
2018-03-08T21:25:59.644Z,6.10
2018-03-08T21:28:26.219Z,6.10
2018-03-08T21:30:52.816Z,6.00
2018-03-08T21:33:19.308Z,5.90
2018-03-08T21:35:45.851Z,5.90
2018-03-08T21:38:12.298Z,5.90
2018-03-08T21:40:38.858Z,5.70
2018-03-08T21:43:06.212Z,5.60
2018-03-08T21:45:32.749Z,5.60
2018-03-08T21:47:59.999Z,5.50
2018-03-08T21:50:26.512Z,5.60
2018-03-08T21:52:53.044Z,5.60
2018-03-08T21:55:19.585Z,5.70
2018-03-08T21:57:46.175Z,5.70
2018-03-08T22:00:12.649Z,5.70
2018-03-08T22:02:39.097Z,5.70
2018-03-08T22:05:06.274Z,5.70
2018-03-08T22:07:33.448Z,5.60
2018-03-08T22:09:59.944Z,5.60
2018-03-08T22:12:26.384Z,5.50
2018-03-08T22:14:53.631Z,5.40
2018-03-08T22:17:20.050Z,5.30
2018-03-08T22:19:46.445Z,5.20
2018-03-08T22:22:12.951Z,5.30
2018-03-08T22:24:39.545Z,5.20
2018-03-08T22:27:05.964Z,5.20
2018-03-08T22:29:32.470Z,5.20
2018-03-08T22:31:58.996Z,5.10
2018-03-08T22:34:25.487Z,5.10
2018-03-08T22:36:51.978Z,5.10
2018-03-08T22:39:18.390Z,4.90
2018-03-08T22:41:44.858Z,4.80
2018-03-08T22:44:11.409Z,4.70
2018-03-08T22:46:38.691Z,4.50
2018-03-08T22:49:05.852Z,4.50
2018-03-08T22:51:33.016Z,4.50
2018-03-08T22:53:59.712Z,4.50
2018-03-08T22:56:26.270Z,4.40
2018-03-08T22:58:52.830Z,4.50
2018-03-08T23:01:26.305Z,4.60
2018-03-08T23:03:53.760Z,4.60
2018-03-08T23:06:20.287Z,4.50
2018-03-08T23:08:46.807Z,4.60
2018-03-08T23:11:14.151Z,4.70
2018-03-08T23:13:40.819Z,4.70
2018-03-08T23:16:07.386Z,4.80
2018-03-08T23:18:34.097Z,4.90
2018-03-08T23:21:01.382Z,5.00
2018-03-08T23:23:27.945Z,5.00
2018-03-08T23:25:54.526Z,5.00
2018-03-08T23:28:21.126Z,5.00
2018-03-08T23:30:47.685Z,4.90
2018-03-08T23:33:14.201Z,4.80
2018-03-08T23:35:40.679Z,4.80
2018-03-08T23:38:07.921Z,4.80
2018-03-08T23:40:35.381Z,4.80
2018-03-08T23:43:02.001Z,4.80
2018-03-08T23:45:28.487Z,4.80
2018-03-08T23:47:55.188Z,4.70
2018-03-08T23:50:21.708Z,4.60
2018-03-08T23:52:49.190Z,4.60
2018-03-08T23:55:15.765Z,4.60
2018-03-08T23:57:42.353Z,4.60
